sensor_id;sensor_type;location;lat;lon;timestamp;P1;durP1;ratioP1;P2;durP2;ratioP2
67352;SDS011;54238;52.278;21.056;2024-01-30T00:01:33;47.80;;;23.90;;
67352;SDS011;54238;52.278;21.056;2024-01-30T00:04:02;50.30;;;26.30;;
67352;SDS011;54238;52.278;21.056;2024-01-30T00:06:32;49.60;;;26.40;;
67352;SDS011;54238;52.278;21.056;2024-01-30T00:09:04;53.00;;;25.90;;
67352;SDS011;54238;52.278;21.056;2024-01-30T00:11:39;47.10;;;26.30;;
67352;SDS011;54238;52.278;21.056;2024-01-30T00:14:06;47.60;;;25.20;;
67352;SDS011;54238;52.278;21.056;2024-01-30T00:16:38;46.40;;;25.00;;
67352;SDS011;54238;52.278;21.056;2024-01-30T00:19:09;55.50;;;27.40;;
67352;SDS011;54238;52.278;21.056;2024-01-30T00:21:41;52.20;;;26.20;;
67352;SDS011;54238;52.278;21.056;2024-01-30T00:24:18;56.10;;;28.20;;
67352;SDS011;54238;52.278;21.056;2024-01-30T00:26:50;55.60;;;28.20;;
67352;SDS011;54238;52.278;21.056;2024-01-30T00:29:24;52.40;;;26.20;;
67352;SDS011;54238;52.278;21.056;2024-01-30T00:31:56;52.10;;;28.70;;
67352;SDS011;54238;52.278;21.056;2024-01-30T00:34:26;54.50;;;28.80;;
67352;SDS011;54238;52.278;21.056;2024-01-30T00:36:57;55.90;;;29.20;;
67352;SDS011;54238;52.278;21.056;2024-01-30T00:39:25;54.00;;;28.80;;
67352;SDS011;54238;52.278;21.056;2024-01-30T00:41:54;52.50;;;26.70;;
67352;SDS011;54238;52.278;21.056;2024-01-30T00:44:27;58.50;;;27.60;;
67352;SDS011;54238;52.278;21.056;2024-01-30T00:46:56;49.90;;;25.00;;
67352;SDS011;54238;52.278;21.056;2024-01-30T00:49:27;58.50;;;30.50;;
67352;SDS011;54238;52.278;21.056;2024-01-30T00:51:54;59.00;;;29.70;;
67352;SDS011;54238;52.278;21.056;2024-01-30T00:54:23;59.50;;;28.70;;
67352;SDS011;54238;52.278;21.056;2024-01-30T00:56:51;56.20;;;28.80;;
67352;SDS011;54238;52.278;21.056;2024-01-30T00:59:17;49.80;;;26.20;;
67352;SDS011;54238;52.278;21.056;2024-01-30T01:01:45;48.90;;;26.20;;
67352;SDS011;54238;52.278;21.056;2024-01-30T01:04:12;52.60;;;26.50;;
67352;SDS011;54238;52.278;21.056;2024-01-30T01:06:42;52.90;;;26.20;;
67352;SDS011;54238;52.278;21.056;2024-01-30T01:09:14;49.40;;;27.40;;
67352;SDS011;54238;52.278;21.056;2024-01-30T01:11:41;55.70;;;27.60;;
67352;SDS011;54238;52.278;21.056;2024-01-30T01:14:13;51.70;;;29.40;;
67352;SDS011;54238;52.278;21.056;2024-01-30T01:16:42;54.40;;;27.60;;
67352;SDS011;54238;52.278;21.056;2024-01-30T01:19:14;58.40;;;29.20;;
67352;SDS011;54238;52.278;21.056;2024-01-30T01:21:46;54.00;;;29.00;;
67352;SDS011;54238;52.278;21.056;2024-01-30T01:24:15;56.40;;;28.20;;
67352;SDS011;54238;52.278;21.056;2024-01-30T01:26:42;53.90;;;27.70;;
67352;SDS011;54238;52.278;21.056;2024-01-30T01:29:12;53.20;;;27.40;;
67352;SDS011;54238;52.278;21.056;2024-01-30T01:31:39;59.10;;;29.90;;
67352;SDS011;54238;52.278;21.056;2024-01-30T01:34:11;50.00;;;25.80;;
67352;SDS011;54238;52.278;21.056;2024-01-30T01:36:43;60.20;;;27.50;;
67352;SDS011;54238;52.278;21.056;2024-01-30T01:39:10;53.30;;;27.70;;
67352;SDS011;54238;52.278;21.056;2024-01-30T01:41:39;57.20;;;28.70;;
67352;SDS011;54238;52.278;21.056;2024-01-30T01:44:11;56.50;;;28.60;;
67352;SDS011;54238;52.278;21.056;2024-01-30T01:46:38;51.50;;;27.40;;
67352;SDS011;54238;52.278;21.056;2024-01-30T01:49:09;54.30;;;27.10;;
67352;SDS011;54238;52.278;21.056;2024-01-30T01:51:42;55.00;;;27.70;;
67352;SDS011;54238;52.278;21.056;2024-01-30T01:54:12;49.90;;;27.50;;
67352;SDS011;54238;52.278;21.056;2024-01-30T01:56:46;55.50;;;28.90;;
67352;SDS011;54238;52.278;21.056;2024-01-30T01:59:17;45.30;;;25.10;;
67352;SDS011;54238;52.278;21.056;2024-01-30T02:01:55;54.50;;;29.50;;
67352;SDS011;54238;52.278;21.056;2024-01-30T02:04:32;56.00;;;28.70;;
67352;SDS011;54238;52.278;21.056;2024-01-30T02:09:34;49.70;;;27.00;;
67352;SDS011;54238;52.278;21.056;2024-01-30T02:12:02;50.70;;;27.40;;
67352;SDS011;54238;52.278;21.056;2024-01-30T02:14:30;51.70;;;26.20;;
67352;SDS011;54238;52.278;21.056;2024-01-30T02:17:06;53.40;;;28.20;;
67352;SDS011;54238;52.278;21.056;2024-01-30T02:19:37;51.90;;;26.00;;
67352;SDS011;54238;52.278;21.056;2024-01-30T02:22:07;53.40;;;28.00;;
67352;SDS011;54238;52.278;21.056;2024-01-30T02:24:38;52.40;;;27.30;;
67352;SDS011;54238;52.278;21.056;2024-01-30T02:27:10;53.70;;;25.90;;
67352;SDS011;54238;52.278;21.056;2024-01-30T02:29:40;51.20;;;27.90;;
67352;SDS011;54238;52.278;21.056;2024-01-30T02:32:07;50.20;;;27.30;;
67352;SDS011;54238;52.278;21.056;2024-01-30T02:34:39;56.10;;;28.50;;
67352;SDS011;54238;52.278;21.056;2024-01-30T02:37:13;53.60;;;28.20;;
67352;SDS011;54238;52.278;21.056;2024-01-30T02:39:46;46.00;;;24.70;;
67352;SDS011;54238;52.278;21.056;2024-01-30T02:42:15;50.30;;;26.60;;
67352;SDS011;54238;52.278;21.056;2024-01-30T02:44:51;50.80;;;25.80;;
67352;SDS011;54238;52.278;21.056;2024-01-30T02:47:20;44.50;;;24.40;;
67352;SDS011;54238;52.278;21.056;2024-01-30T02:49:49;47.30;;;23.90;;
67352;SDS011;54238;52.278;21.056;2024-01-30T02:52:16;52.60;;;27.20;;
67352;SDS011;54238;52.278;21.056;2024-01-30T02:54:46;50.30;;;24.60;;
67352;SDS011;54238;52.278;21.056;2024-01-30T02:57:15;50.80;;;26.60;;
67352;SDS011;54238;52.278;21.056;2024-01-30T02:59:42;52.40;;;27.00;;
67352;SDS011;54238;52.278;21.056;2024-01-30T03:02:11;49.70;;;25.30;;
67352;SDS011;54238;52.278;21.056;2024-01-30T03:04:42;49.40;;;24.70;;
67352;SDS011;54238;52.278;21.056;2024-01-30T03:07:12;49.40;;;25.30;;
67352;SDS011;54238;52.278;21.056;2024-01-30T03:09:41;44.50;;;24.50;;
67352;SDS011;54238;52.278;21.056;2024-01-30T03:12:10;50.20;;;26.10;;
67352;SDS011;54238;52.278;21.056;2024-01-30T03:14:37;48.50;;;25.30;;
67352;SDS011;54238;52.278;21.056;2024-01-30T03:17:07;55.50;;;27.00;;
67352;SDS011;54238;52.278;21.056;2024-01-30T03:19:37;45.80;;;24.50;;
67352;SDS011;54238;52.278;21.056;2024-01-30T03:22:04;50.20;;;26.80;;
67352;SDS011;54238;52.278;21.056;2024-01-30T03:24:36;49.20;;;25.40;;
67352;SDS011;54238;52.278;21.056;2024-01-30T03:27:05;47.70;;;25.00;;
67352;SDS011;54238;52.278;21.056;2024-01-30T03:29:35;49.70;;;25.40;;
67352;SDS011;54238;52.278;21.056;2024-01-30T03:32:05;48.10;;;26.40;;
67352;SDS011;54238;52.278;21.056;2024-01-30T03:34:34;49.20;;;25.10;;
67352;SDS011;54238;52.278;21.056;2024-01-30T03:37:03;48.90;;;26.10;;
67352;SDS011;54238;52.278;21.056;2024-01-30T03:39:33;45.20;;;26.40;;
67352;SDS011;54238;52.278;21.056;2024-01-30T03:42:00;49.00;;;27.10;;
67352;SDS011;54238;52.278;21.056;2024-01-30T03:44:34;48.40;;;25.10;;
67352;SDS011;54238;52.278;21.056;2024-01-30T03:47:01;49.00;;;25.00;;
67352;SDS011;54238;52.278;21.056;2024-01-30T03:49:31;45.00;;;23.90;;
67352;SDS011;54238;52.278;21.056;2024-01-30T03:52:03;55.90;;;25.30;;
67352;SDS011;54238;52.278;21.056;2024-01-30T03:54:32;50.70;;;26.60;;
67352;SDS011;54238;52.278;21.056;2024-01-30T03:57:01;52.30;;;29.40;;
67352;SDS011;54238;52.278;21.056;2024-01-30T03:59:31;56.10;;;31.20;;
67352;SDS011;54238;52.278;21.056;2024-01-30T04:02:03;66.40;;;32.80;;
67352;SDS011;54238;52.278;21.056;2024-01-30T04:04:31;57.40;;;31.80;;
67352;SDS011;54238;52.278;21.056;2024-01-30T04:07:00;56.90;;;29.40;;
67352;SDS011;54238;52.278;21.056;2024-01-30T04:09:34;54.10;;;30.80;;
67352;SDS011;54238;52.278;21.056;2024-01-30T04:12:03;55.60;;;31.60;;
67352;SDS011;54238;52.278;21.056;2024-01-30T04:14:30;48.10;;;29.00;;
67352;SDS011;54238;52.278;21.056;2024-01-30T04:17:01;52.90;;;28.60;;
67352;SDS011;54238;52.278;21.056;2024-01-30T04:19:28;52.80;;;28.60;;
67352;SDS011;54238;52.278;21.056;2024-01-30T04:22:00;49.90;;;27.00;;
67352;SDS011;54238;52.278;21.056;2024-01-30T04:24:30;54.70;;;28.10;;
67352;SDS011;54238;52.278;21.056;2024-01-30T04:26:57;48.90;;;26.40;;
67352;SDS011;54238;52.278;21.056;2024-01-30T04:29:24;48.40;;;26.00;;
67352;SDS011;54238;52.278;21.056;2024-01-30T04:31:51;53.30;;;27.00;;
67352;SDS011;54238;52.278;21.056;2024-01-30T04:34:21;48.20;;;25.60;;
67352;SDS011;54238;52.278;21.056;2024-01-30T04:36:50;47.70;;;25.90;;
67352;SDS011;54238;52.278;21.056;2024-01-30T04:39:19;55.10;;;27.80;;
67352;SDS011;54238;52.278;21.056;2024-01-30T04:41:51;47.60;;;26.40;;
67352;SDS011;54238;52.278;21.056;2024-01-30T04:44:21;49.30;;;26.40;;
67352;SDS011;54238;52.278;21.056;2024-01-30T04:46:53;54.00;;;27.60;;
67352;SDS011;54238;52.278;21.056;2024-01-30T04:49:22;47.00;;;26.10;;
67352;SDS011;54238;52.278;21.056;2024-01-30T04:51:52;49.10;;;25.70;;
67352;SDS011;54238;52.278;21.056;2024-01-30T04:54:22;49.70;;;26.30;;
67352;SDS011;54238;52.278;21.056;2024-01-30T04:56:49;58.10;;;29.00;;
67352;SDS011;54238;52.278;21.056;2024-01-30T04:59:16;52.70;;;28.60;;
67352;SDS011;54238;52.278;21.056;2024-01-30T05:01:46;57.10;;;30.30;;
67352;SDS011;54238;52.278;21.056;2024-01-30T05:04:20;63.50;;;34.50;;
67352;SDS011;54238;52.278;21.056;2024-01-30T05:06:50;63.10;;;35.20;;
67352;SDS011;54238;52.278;21.056;2024-01-30T05:09:20;65.20;;;36.80;;
67352;SDS011;54238;52.278;21.056;2024-01-30T05:11:47;67.10;;;39.20;;
67352;SDS011;54238;52.278;21.056;2024-01-30T05:14:17;64.60;;;37.80;;
67352;SDS011;54238;52.278;21.056;2024-01-30T05:16:44;68.10;;;40.60;;
67352;SDS011;54238;52.278;21.056;2024-01-30T05:19:18;72.40;;;39.70;;
67352;SDS011;54238;52.278;21.056;2024-01-30T05:21:47;66.40;;;37.70;;
67352;SDS011;54238;52.278;21.056;2024-01-30T05:24:17;66.40;;;37.00;;
67352;SDS011;54238;52.278;21.056;2024-01-30T05:26:50;56.20;;;34.10;;
67352;SDS011;54238;52.278;21.056;2024-01-30T05:29:20;68.70;;;35.50;;
67352;SDS011;54238;52.278;21.056;2024-01-30T05:31:47;59.60;;;33.60;;
67352;SDS011;54238;52.278;21.056;2024-01-30T05:34:20;62.60;;;34.10;;
67352;SDS011;54238;52.278;21.056;2024-01-30T05:36:50;60.60;;;33.80;;
67352;SDS011;54238;52.278;21.056;2024-01-30T05:39:17;58.90;;;32.70;;
67352;SDS011;54238;52.278;21.056;2024-01-30T05:41:44;53.20;;;30.60;;
67352;SDS011;54238;52.278;21.056;2024-01-30T05:44:11;51.70;;;28.70;;
67352;SDS011;54238;52.278;21.056;2024-01-30T05:46:40;53.70;;;28.70;;
67352;SDS011;54238;52.278;21.056;2024-01-30T05:49:08;56.00;;;28.70;;
67352;SDS011;54238;52.278;21.056;2024-01-30T05:51:37;50.70;;;30.00;;
67352;SDS011;54238;52.278;21.056;2024-01-30T05:54:11;52.60;;;28.80;;
67352;SDS011;54238;52.278;21.056;2024-01-30T05:56:43;49.00;;;26.90;;
67352;SDS011;54238;52.278;21.056;2024-01-30T05:59:12;58.60;;;27.70;;
67352;SDS011;54238;52.278;21.056;2024-01-30T06:01:46;49.30;;;25.60;;
67352;SDS011;54238;52.278;21.056;2024-01-30T06:04:16;54.90;;;26.80;;
67352;SDS011;54238;52.278;21.056;2024-01-30T06:06:48;53.40;;;27.90;;
67352;SDS011;54238;52.278;21.056;2024-01-30T06:09:15;53.40;;;25.70;;
67352;SDS011;54238;52.278;21.056;2024-01-30T06:11:42;51.80;;;26.10;;
67352;SDS011;54238;52.278;21.056;2024-01-30T06:14:09;47.40;;;26.00;;
67352;SDS011;54238;52.278;21.056;2024-01-30T06:16:36;49.80;;;25.90;;
67352;SDS011;54238;52.278;21.056;2024-01-30T06:19:05;57.40;;;28.30;;
67352;SDS011;54238;52.278;21.056;2024-01-30T06:21:32;52.70;;;26.80;;
67352;SDS011;54238;52.278;21.056;2024-01-30T06:24:03;55.90;;;28.10;;
67352;SDS011;54238;52.278;21.056;2024-01-30T06:26:38;53.20;;;26.50;;
67352;SDS011;54238;52.278;21.056;2024-01-30T06:29:05;56.60;;;26.50;;
67352;SDS011;54238;52.278;21.056;2024-01-30T06:31:39;54.20;;;26.20;;
67352;SDS011;54238;52.278;21.056;2024-01-30T06:34:12;50.30;;;26.70;;
67352;SDS011;54238;52.278;21.056;2024-01-30T06:36:42;48.80;;;25.30;;
67352;SDS011;54238;52.278;21.056;2024-01-30T06:39:09;48.30;;;27.10;;
67352;SDS011;54238;52.278;21.056;2024-01-30T06:41:39;52.80;;;26.60;;
67352;SDS011;54238;52.278;21.056;2024-01-30T06:44:06;52.70;;;27.90;;
67352;SDS011;54238;52.278;21.056;2024-01-30T06:46:35;43.40;;;25.00;;
67352;SDS011;54238;52.278;21.056;2024-01-30T06:49:05;51.20;;;26.10;;
67352;SDS011;54238;52.278;21.056;2024-01-30T06:51:34;48.90;;;24.90;;
67352;SDS011;54238;52.278;21.056;2024-01-30T06:54:03;53.00;;;28.10;;
67352;SDS011;54238;52.278;21.056;2024-01-30T06:56:35;51.90;;;27.50;;
67352;SDS011;54238;52.278;21.056;2024-01-30T06:59:04;49.10;;;25.10;;
67352;SDS011;54238;52.278;21.056;2024-01-30T07:01:34;52.40;;;24.30;;
67352;SDS011;54238;52.278;21.056;2024-01-30T07:04:07;46.60;;;23.30;;
67352;SDS011;54238;52.278;21.056;2024-01-30T07:06:34;48.00;;;25.60;;
67352;SDS011;54238;52.278;21.056;2024-01-30T07:09:05;47.30;;;24.30;;
67352;SDS011;54238;52.278;21.056;2024-01-30T07:11:35;48.10;;;24.70;;
67352;SDS011;54238;52.278;21.056;2024-01-30T07:14:08;52.00;;;26.90;;
67352;SDS011;54238;52.278;21.056;2024-01-30T07:16:36;42.70;;;22.50;;
67352;SDS011;54238;52.278;21.056;2024-01-30T07:19:03;50.10;;;25.40;;
67352;SDS011;54238;52.278;21.056;2024-01-30T07:21:30;49.00;;;25.20;;
67352;SDS011;54238;52.278;21.056;2024-01-30T07:24:04;59.80;;;27.30;;
67352;SDS011;54238;52.278;21.056;2024-01-30T07:26:34;51.70;;;26.80;;
67352;SDS011;54238;52.278;21.056;2024-01-30T07:29:02;46.20;;;24.20;;
67352;SDS011;54238;52.278;21.056;2024-01-30T07:31:39;53.30;;;28.00;;
67352;SDS011;54238;52.278;21.056;2024-01-30T07:34:10;52.10;;;26.10;;
67352;SDS011;54238;52.278;21.056;2024-01-30T07:36:41;46.00;;;24.70;;
67352;SDS011;54238;52.278;21.056;2024-01-30T07:39:12;49.00;;;26.80;;
67352;SDS011;54238;52.278;21.056;2024-01-30T07:41:42;51.90;;;25.70;;
67352;SDS011;54238;52.278;21.056;2024-01-30T07:44:11;47.40;;;24.90;;
67352;SDS011;54238;52.278;21.056;2024-01-30T07:46:39;51.50;;;25.80;;
67352;SDS011;54238;52.278;21.056;2024-01-30T07:49:06;51.50;;;27.10;;
67352;SDS011;54238;52.278;21.056;2024-01-30T07:51:38;48.90;;;26.40;;
67352;SDS011;54238;52.278;21.056;2024-01-30T07:54:08;57.20;;;26.30;;
67352;SDS011;54238;52.278;21.056;2024-01-30T07:56:37;50.00;;;25.30;;
67352;SDS011;54238;52.278;21.056;2024-01-30T07:59:10;50.30;;;25.60;;
67352;SDS011;54238;52.278;21.056;2024-01-30T08:01:39;55.20;;;24.40;;
67352;SDS011;54238;52.278;21.056;2024-01-30T08:04:11;48.00;;;23.80;;
67352;SDS011;54238;52.278;21.056;2024-01-30T08:06:41;39.20;;;20.40;;
67352;SDS011;54238;52.278;21.056;2024-01-30T08:09:10;46.30;;;22.20;;
67352;SDS011;54238;52.278;21.056;2024-01-30T08:11:40;49.00;;;21.70;;
67352;SDS011;54238;52.278;21.056;2024-01-30T08:14:11;37.70;;;18.60;;
67352;SDS011;54238;52.278;21.056;2024-01-30T08:16:41;43.00;;;19.00;;
67352;SDS011;54238;52.278;21.056;2024-01-30T08:19:10;45.30;;;20.10;;
67352;SDS011;54238;52.278;21.056;2024-01-30T08:21:38;40.70;;;19.40;;
67352;SDS011;54238;52.278;21.056;2024-01-30T08:24:08;40.70;;;19.80;;
67352;SDS011;54238;52.278;21.056;2024-01-30T08:26:35;40.10;;;21.40;;
67352;SDS011;54238;52.278;21.056;2024-01-30T08:29:07;40.20;;;18.30;;
67352;SDS011;54238;52.278;21.056;2024-01-30T08:31:34;44.80;;;20.70;;
67352;SDS011;54238;52.278;21.056;2024-01-30T08:34:01;36.00;;;18.90;;
67352;SDS011;54238;52.278;21.056;2024-01-30T08:36:28;40.20;;;20.50;;
67352;SDS011;54238;52.278;21.056;2024-01-30T08:38:58;45.80;;;20.80;;
67352;SDS011;54238;52.278;21.056;2024-01-30T08:41:29;45.60;;;20.20;;
67352;SDS011;54238;52.278;21.056;2024-01-30T08:43:59;41.40;;;19.50;;
67352;SDS011;54238;52.278;21.056;2024-01-30T08:46:28;37.80;;;18.10;;
67352;SDS011;54238;52.278;21.056;2024-01-30T08:48:57;36.10;;;17.90;;
67352;SDS011;54238;52.278;21.056;2024-01-30T08:51:26;36.10;;;16.00;;
67352;SDS011;54238;52.278;21.056;2024-01-30T08:53:56;33.40;;;17.00;;
67352;SDS011;54238;52.278;21.056;2024-01-30T08:56:23;41.80;;;17.80;;
67352;SDS011;54238;52.278;21.056;2024-01-30T08:58:53;27.70;;;14.80;;
67352;SDS011;54238;52.278;21.056;2024-01-30T09:01:20;38.10;;;17.60;;
67352;SDS011;54238;52.278;21.056;2024-01-30T09:03:49;39.70;;;18.50;;
67352;SDS011;54238;52.278;21.056;2024-01-30T09:06:20;40.70;;;19.00;;
67352;SDS011;54238;52.278;21.056;2024-01-30T09:08:53;41.20;;;17.30;;
67352;SDS011;54238;52.278;21.056;2024-01-30T09:11:24;45.50;;;18.30;;
67352;SDS011;54238;52.278;21.056;2024-01-30T09:13:51;31.90;;;17.60;;
67352;SDS011;54238;52.278;21.056;2024-01-30T09:16:18;35.40;;;17.50;;
67352;SDS011;54238;52.278;21.056;2024-01-30T09:18:48;36.20;;;16.90;;
67352;SDS011;54238;52.278;21.056;2024-01-30T09:21:15;39.40;;;15.80;;
67352;SDS011;54238;52.278;21.056;2024-01-30T09:23:42;35.10;;;17.90;;
67352;SDS011;54238;52.278;21.056;2024-01-30T09:26:11;36.60;;;18.00;;
67352;SDS011;54238;52.278;21.056;2024-01-30T09:28:39;34.20;;;16.90;;
67352;SDS011;54238;52.278;21.056;2024-01-30T09:31:11;33.20;;;18.20;;
67352;SDS011;54238;52.278;21.056;2024-01-30T09:33:41;36.00;;;18.50;;
67352;SDS011;54238;52.278;21.056;2024-01-30T09:36:10;29.60;;;16.10;;
67352;SDS011;54238;52.278;21.056;2024-01-30T09:38:37;36.10;;;17.10;;
67352;SDS011;54238;52.278;21.056;2024-01-30T09:41:09;31.00;;;17.30;;
67352;SDS011;54238;52.278;21.056;2024-01-30T09:43:39;36.00;;;16.60;;
67352;SDS011;54238;52.278;21.056;2024-01-30T09:46:14;36.70;;;18.20;;
67352;SDS011;54238;52.278;21.056;2024-01-30T09:48:47;34.80;;;16.70;;
67352;SDS011;54238;52.278;21.056;2024-01-30T09:51:16;29.40;;;15.90;;
67352;SDS011;54238;52.278;21.056;2024-01-30T09:53:50;27.60;;;15.30;;
67352;SDS011;54238;52.278;21.056;2024-01-30T09:56:17;27.30;;;15.60;;
67352;SDS011;54238;52.278;21.056;2024-01-30T09:58:45;26.80;;;14.90;;
67352;SDS011;54238;52.278;21.056;2024-01-30T10:01:17;29.30;;;16.00;;
67352;SDS011;54238;52.278;21.056;2024-01-30T10:03:50;34.90;;;17.00;;
67352;SDS011;54238;52.278;21.056;2024-01-30T10:06:19;32.90;;;16.50;;
67352;SDS011;54238;52.278;21.056;2024-01-30T10:08:55;32.80;;;14.90;;
67352;SDS011;54238;52.278;21.056;2024-01-30T10:11:22;27.00;;;15.70;;
67352;SDS011;54238;52.278;21.056;2024-01-30T10:13:50;30.30;;;16.10;;
67352;SDS011;54238;52.278;21.056;2024-01-30T10:16:21;30.30;;;16.20;;
67352;SDS011;54238;52.278;21.056;2024-01-30T10:18:51;27.90;;;14.90;;
67352;SDS011;54238;52.278;21.056;2024-01-30T10:21:25;33.00;;;15.50;;
67352;SDS011;54238;52.278;21.056;2024-01-30T10:23:52;27.70;;;13.90;;
67352;SDS011;54238;52.278;21.056;2024-01-30T10:26:27;30.30;;;15.50;;
67352;SDS011;54238;52.278;21.056;2024-01-30T10:29:06;33.60;;;15.70;;
67352;SDS011;54238;52.278;21.056;2024-01-30T10:31:34;31.10;;;16.00;;
67352;SDS011;54238;52.278;21.056;2024-01-30T10:34:01;25.20;;;14.20;;
67352;SDS011;54238;52.278;21.056;2024-01-30T10:36:29;25.40;;;15.20;;
67352;SDS011;54238;52.278;21.056;2024-01-30T10:38:59;26.30;;;14.80;;
67352;SDS011;54238;52.278;21.056;2024-01-30T10:41:31;27.10;;;15.60;;
67352;SDS011;54238;52.278;21.056;2024-01-30T10:44:17;26.60;;;14.60;;
67352;SDS011;54238;52.278;21.056;2024-01-30T10:46:53;26.70;;;15.00;;
67352;SDS011;54238;52.278;21.056;2024-01-30T10:49:30;26.80;;;14.90;;
67352;SDS011;54238;52.278;21.056;2024-01-30T10:52:09;28.60;;;15.40;;
67352;SDS011;54238;52.278;21.056;2024-01-30T10:54:37;25.60;;;15.60;;
67352;SDS011;54238;52.278;21.056;2024-01-30T10:57:05;27.70;;;14.50;;
67352;SDS011;54238;52.278;21.056;2024-01-30T10:59:38;23.80;;;14.80;;
67352;SDS011;54238;52.278;21.056;2024-01-30T11:02:11;24.70;;;15.00;;
67352;SDS011;54238;52.278;21.056;2024-01-30T11:04:45;24.80;;;14.30;;
67352;SDS011;54238;52.278;21.056;2024-01-30T11:07:18;25.30;;;14.30;;
67352;SDS011;54238;52.278;21.056;2024-01-30T11:10:02;26.80;;;15.20;;
67352;SDS011;54238;52.278;21.056;2024-01-30T11:12:37;25.80;;;14.90;;
67352;SDS011;54238;52.278;21.056;2024-01-30T11:15:14;29.50;;;16.10;;
67352;SDS011;54238;52.278;21.056;2024-01-30T11:17:53;26.60;;;16.40;;
67352;SDS011;54238;52.278;21.056;2024-01-30T11:20:32;26.90;;;15.30;;
67352;SDS011;54238;52.278;21.056;2024-01-30T11:23:02;28.30;;;14.70;;
67352;SDS011;54238;52.278;21.056;2024-01-30T11:25:37;27.60;;;15.80;;
67352;SDS011;54238;52.278;21.056;2024-01-30T11:28:05;28.70;;;15.70;;
67352;SDS011;54238;52.278;21.056;2024-01-30T11:30:43;25.90;;;15.20;;
67352;SDS011;54238;52.278;21.056;2024-01-30T11:33:28;26.40;;;15.80;;
67352;SDS011;54238;52.278;21.056;2024-01-30T11:36:08;31.90;;;15.50;;
67352;SDS011;54238;52.278;21.056;2024-01-30T11:38:43;29.30;;;15.60;;
67352;SDS011;54238;52.278;21.056;2024-01-30T11:41:17;27.70;;;15.50;;
67352;SDS011;54238;52.278;21.056;2024-01-30T11:43:52;28.30;;;14.90;;
67352;SDS011;54238;52.278;21.056;2024-01-30T11:46:25;24.40;;;15.40;;
67352;SDS011;54238;52.278;21.056;2024-01-30T11:48:55;25.60;;;15.90;;
67352;SDS011;54238;52.278;21.056;2024-01-30T11:51:25;27.00;;;15.10;;
67352;SDS011;54238;52.278;21.056;2024-01-30T11:53:53;23.30;;;14.60;;
67352;SDS011;54238;52.278;21.056;2024-01-30T11:56:23;25.80;;;15.60;;
67352;SDS011;54238;52.278;21.056;2024-01-30T11:58:52;26.90;;;14.50;;
67352;SDS011;54238;52.278;21.056;2024-01-30T12:01:25;22.50;;;14.40;;
67352;SDS011;54238;52.278;21.056;2024-01-30T12:03:55;27.00;;;15.40;;
67352;SDS011;54238;52.278;21.056;2024-01-30T12:06:28;29.80;;;15.60;;
67352;SDS011;54238;52.278;21.056;2024-01-30T12:09:02;24.50;;;14.10;;
67352;SDS011;54238;52.278;21.056;2024-01-30T12:11:46;27.70;;;15.40;;
67352;SDS011;54238;52.278;21.056;2024-01-30T12:14:17;24.00;;;14.30;;
67352;SDS011;54238;52.278;21.056;2024-01-30T12:16:49;20.00;;;14.40;;
67352;SDS011;54238;52.278;21.056;2024-01-30T12:19:25;26.00;;;14.70;;
67352;SDS011;54238;52.278;21.056;2024-01-30T12:21:59;26.10;;;13.90;;
67352;SDS011;54238;52.278;21.056;2024-01-30T12:24:32;28.40;;;16.70;;
67352;SDS011;54238;52.278;21.056;2024-01-30T12:26:59;26.60;;;15.00;;
67352;SDS011;54238;52.278;21.056;2024-01-30T12:29:32;25.00;;;15.60;;
67352;SDS011;54238;52.278;21.056;2024-01-30T12:32:00;26.20;;;14.90;;
67352;SDS011;54238;52.278;21.056;2024-01-30T12:34:30;22.30;;;14.50;;
67352;SDS011;54238;52.278;21.056;2024-01-30T12:36:59;24.40;;;14.80;;
67352;SDS011;54238;52.278;21.056;2024-01-30T12:39:26;19.80;;;14.30;;
67352;SDS011;54238;52.278;21.056;2024-01-30T12:41:57;24.80;;;14.10;;
67352;SDS011;54238;52.278;21.056;2024-01-30T12:44:29;24.30;;;14.60;;
67352;SDS011;54238;52.278;21.056;2024-01-30T12:46:58;22.20;;;14.20;;
67352;SDS011;54238;52.278;21.056;2024-01-30T12:49:34;21.60;;;14.20;;
67352;SDS011;54238;52.278;21.056;2024-01-30T12:52:01;26.90;;;15.20;;
67352;SDS011;54238;52.278;21.056;2024-01-30T12:54:30;22.40;;;14.90;;
67352;SDS011;54238;52.278;21.056;2024-01-30T12:57:00;25.80;;;15.00;;
67352;SDS011;54238;52.278;21.056;2024-01-30T12:59:29;20.70;;;13.90;;
67352;SDS011;54238;52.278;21.056;2024-01-30T13:02:00;26.70;;;15.70;;
67352;SDS011;54238;52.278;21.056;2024-01-30T13:04:32;23.90;;;14.60;;
67352;SDS011;54238;52.278;21.056;2024-01-30T13:07:04;22.80;;;15.00;;
67352;SDS011;54238;52.278;21.056;2024-01-30T13:09:38;23.30;;;13.80;;
67352;SDS011;54238;52.278;21.056;2024-01-30T13:12:06;20.50;;;14.10;;
67352;SDS011;54238;52.278;21.056;2024-01-30T13:14:35;26.90;;;14.20;;
67352;SDS011;54238;52.278;21.056;2024-01-30T13:17:07;24.00;;;14.30;;
67352;SDS011;54238;52.278;21.056;2024-01-30T13:19:34;20.80;;;11.90;;
67352;SDS011;54238;52.278;21.056;2024-01-30T13:22:01;23.30;;;13.70;;
67352;SDS011;54238;52.278;21.056;2024-01-30T13:24:31;20.80;;;14.20;;
67352;SDS011;54238;52.278;21.056;2024-01-30T13:27:05;23.50;;;14.00;;
67352;SDS011;54238;52.278;21.056;2024-01-30T13:29:36;24.10;;;15.10;;
67352;SDS011;54238;52.278;21.056;2024-01-30T13:32:04;24.30;;;14.60;;
67352;SDS011;54238;52.278;21.056;2024-01-30T13:34:36;24.40;;;14.00;;
67352;SDS011;54238;52.278;21.056;2024-01-30T13:37:07;23.80;;;14.50;;
67352;SDS011;54238;52.278;21.056;2024-01-30T13:39:36;22.20;;;15.10;;
67352;SDS011;54238;52.278;21.056;2024-01-30T13:42:06;27.50;;;13.50;;
67352;SDS011;54238;52.278;21.056;2024-01-30T13:44:37;21.60;;;14.70;;
67352;SDS011;54238;52.278;21.056;2024-01-30T13:47:06;24.50;;;13.80;;
67352;SDS011;54238;52.278;21.056;2024-01-30T13:49:34;23.60;;;14.30;;
67352;SDS011;54238;52.278;21.056;2024-01-30T13:52:03;24.10;;;14.60;;
67352;SDS011;54238;52.278;21.056;2024-01-30T13:54:37;24.50;;;14.50;;
67352;SDS011;54238;52.278;21.056;2024-01-30T13:57:04;24.70;;;14.90;;
67352;SDS011;54238;52.278;21.056;2024-01-30T13:59:35;25.20;;;14.90;;
67352;SDS011;54238;52.278;21.056;2024-01-30T14:02:02;29.00;;;15.00;;
67352;SDS011;54238;52.278;21.056;2024-01-30T14:04:29;28.80;;;15.70;;
67352;SDS011;54238;52.278;21.056;2024-01-30T14:06:56;25.60;;;14.20;;
67352;SDS011;54238;52.278;21.056;2024-01-30T14:09:23;28.80;;;15.70;;
67352;SDS011;54238;52.278;21.056;2024-01-30T14:11:54;25.70;;;14.80;;
67352;SDS011;54238;52.278;21.056;2024-01-30T14:14:24;27.20;;;15.10;;
67352;SDS011;54238;52.278;21.056;2024-01-30T14:16:55;29.60;;;16.10;;
67352;SDS011;54238;52.278;21.056;2024-01-30T14:19:22;24.50;;;15.60;;
67352;SDS011;54238;52.278;21.056;2024-01-30T14:21:54;25.80;;;14.30;;
67352;SDS011;54238;52.278;21.056;2024-01-30T14:24:23;25.50;;;13.80;;
67352;SDS011;54238;52.278;21.056;2024-01-30T14:26:57;25.40;;;14.60;;
67352;SDS011;54238;52.278;21.056;2024-01-30T14:29:27;26.50;;;14.90;;